sensor_id;sensor_type;location;lat;lon;timestamp;pressure;altitude;pressure_sealevel;temperature;humidity
72896;BME280;61036;53.224;6.554;2023-05-22T00:00:14;101567.78;;;22.54;100.00
72896;BME280;61036;53.224;6.554;2023-05-22T00:02:41;101558.03;;;22.91;100.00
72896;BME280;61036;53.224;6.554;2023-05-22T00:05:09;101563.38;;;22.84;100.00
72896;BME280;61036;53.224;6.554;2023-05-22T00:07:35;101564.09;;;22.78;100.00
72896;BME280;61036;53.224;6.554;2023-05-22T00:10:01;101571.91;;;22.50;100.00
72896;BME280;61036;53.224;6.554;2023-05-22T00:12:26;101560.81;;;22.74;100.00
72896;BME280;61036;53.224;6.554;2023-05-22T00:14:52;101567.69;;;22.87;100.00
72896;BME280;61036;53.224;6.554;2023-05-22T00:17:17;101568.28;;;22.57;100.00
72896;BME280;61036;53.224;6.554;2023-05-22T00:19:43;101572.50;;;22.85;100.00
72896;BME280;61036;53.224;6.554;2023-05-22T00:22:08;101604.19;;;21.15;100.00
72896;BME280;61036;53.224;6.554;2023-05-22T00:24:34;101586.72;;;21.75;100.00
72896;BME280;61036;53.224;6.554;2023-05-22T00:27:00;101573.69;;;22.82;100.00
72896;BME280;61036;53.224;6.554;2023-05-22T00:29:26;101584.66;;;21.94;100.00
72896;BME280;61036;53.224;6.554;2023-05-22T00:31:51;101560.16;;;22.80;100.00
72896;BME280;61036;53.224;6.554;2023-05-22T00:34:17;101543.22;;;22.92;100.00
72896;BME280;61036;53.224;6.554;2023-05-22T00:36:43;101545.75;;;23.10;100.00
72896;BME280;61036;53.224;6.554;2023-05-22T00:39:08;101555.25;;;22.35;100.00
72896;BME280;61036;53.224;6.554;2023-05-22T00:41:34;101556.31;;;21.93;100.00
72896;BME280;61036;53.224;6.554;2023-05-22T00:44:00;101562.50;;;21.79;100.00
72896;BME280;61036;53.224;6.554;2023-05-22T00:46:27;101540.22;;;22.70;100.00
72896;BME280;61036;53.224;6.554;2023-05-22T00:48:52;101522.78;;;22.86;100.00
72896;BME280;61036;53.224;6.554;2023-05-22T00:51:20;101536.38;;;22.88;100.00
72896;BME280;61036;53.224;6.554;2023-05-22T00:53:47;101517.84;;;22.81;100.00
72896;BME280;61036;53.224;6.554;2023-05-22T00:56:13;101512.97;;;23.00;100.00
72896;BME280;61036;53.224;6.554;2023-05-22T00:58:40;101515.81;;;23.15;100.00
72896;BME280;61036;53.224;6.554;2023-05-22T01:01:06;101510.63;;;23.20;100.00
72896;BME280;61036;53.224;6.554;2023-05-22T01:03:35;101509.97;;;23.41;100.00
72896;BME280;61036;53.224;6.554;2023-05-22T01:06:02;101519.25;;;21.89;100.00
72896;BME280;61036;53.224;6.554;2023-05-22T01:08:28;101532.47;;;21.53;100.00
72896;BME280;61036;53.224;6.554;2023-05-22T01:11:20;101540.53;;;22.03;100.00
72896;BME280;61036;53.224;6.554;2023-05-22T01:14:09;101541.56;;;22.74;100.00
72896;BME280;61036;53.224;6.554;2023-05-22T01:16:42;101534.31;;;22.90;100.00
72896;BME280;61036;53.224;6.554;2023-05-22T01:19:28;101514.72;;;23.24;100.00
72896;BME280;61036;53.224;6.554;2023-05-22T01:25:35;101520.94;;;22.31;100.00
72896;BME280;61036;53.224;6.554;2023-05-22T01:28:06;101516.75;;;23.30;100.00
72896;BME280;61036;53.224;6.554;2023-05-22T01:33:17;101508.53;;;23.22;100.00
72896;BME280;61036;53.224;6.554;2023-05-22T01:35:47;101508.34;;;23.46;100.00
72896;BME280;61036;53.224;6.554;2023-05-22T01:38:15;101503.09;;;23.14;100.00
72896;BME280;61036;53.224;6.554;2023-05-22T01:40:42;101499.38;;;23.30;100.00
72896;BME280;61036;53.224;6.554;2023-05-22T01:43:08;101499.56;;;22.97;100.00
72896;BME280;61036;53.224;6.554;2023-05-22T01:45:34;101491.81;;;23.00;100.00
72896;BME280;61036;53.224;6.554;2023-05-22T01:48:00;101496.34;;;22.85;100.00
72896;BME280;61036;53.224;6.554;2023-05-22T01:50:26;101479.97;;;23.00;100.00
72896;BME280;61036;53.224;6.554;2023-05-22T01:55:42;101479.06;;;22.21;100.00
72896;BME280;61036;53.224;6.554;2023-05-22T01:58:30;101485.19;;;23.18;100.00
72896;BME280;61036;53.224;6.554;2023-05-22T02:00:58;101482.19;;;23.04;100.00
72896;BME280;61036;53.224;6.554;2023-05-22T02:03:29;101480.13;;;23.30;100.00
72896;BME280;61036;53.224;6.554;2023-05-22T02:05:58;101479.69;;;23.18;100.00
72896;BME280;61036;53.224;6.554;2023-05-22T02:08:25;101474.38;;;22.77;100.00
72896;BME280;61036;53.224;6.554;2023-05-22T02:10:53;101485.81;;;22.89;100.00
72896;BME280;61036;53.224;6.554;2023-05-22T02:13:21;101473.41;;;23.01;100.00
72896;BME280;61036;53.224;6.554;2023-05-22T02:15:50;101482.63;;;22.77;100.00
72896;BME280;61036;53.224;6.554;2023-05-22T02:18:16;101463.84;;;22.49;100.00
72896;BME280;61036;53.224;6.554;2023-05-22T02:20:44;101472.22;;;22.56;100.00
72896;BME280;61036;53.224;6.554;2023-05-22T02:23:10;101480.22;;;22.34;100.00
72896;BME280;61036;53.224;6.554;2023-05-22T02:25:35;101474.56;;;22.36;100.00
72896;BME280;61036;53.224;6.554;2023-05-22T02:28:01;101474.00;;;22.49;100.00
72896;BME280;61036;53.224;6.554;2023-05-22T02:30:26;101471.97;;;22.74;100.00
72896;BME280;61036;53.224;6.554;2023-05-22T02:32:53;101473.75;;;22.67;100.00
72896;BME280;61036;53.224;6.554;2023-05-22T02:35:19;101465.97;;;22.78;100.00
72896;BME280;61036;53.224;6.554;2023-05-22T02:37:44;101466.84;;;22.71;100.00
72896;BME280;61036;53.224;6.554;2023-05-22T02:40:11;101477.72;;;22.56;100.00
72896;BME280;61036;53.224;6.554;2023-05-22T02:42:37;101474.50;;;22.52;100.00
72896;BME280;61036;53.224;6.554;2023-05-22T02:45:04;101479.06;;;22.04;100.00
72896;BME280;61036;53.224;6.554;2023-05-22T02:47:30;101473.81;;;21.70;100.00
72896;BME280;61036;53.224;6.554;2023-05-22T02:49:55;101475.84;;;21.68;100.00
72896;BME280;61036;53.224;6.554;2023-05-22T02:52:22;101467.41;;;22.02;100.00
72896;BME280;61036;53.224;6.554;2023-05-22T02:54:49;101461.34;;;22.23;100.00
72896;BME280;61036;53.224;6.554;2023-05-22T02:57:14;101463.06;;;22.16;100.00
72896;BME280;61036;53.224;6.554;2023-05-22T02:59:40;101464.84;;;22.01;100.00
72896;BME280;61036;53.224;6.554;2023-05-22T03:02:05;101467.28;;;21.71;100.00
72896;BME280;61036;53.224;6.554;2023-05-22T03:04:31;101475.50;;;21.79;100.00
72896;BME280;61036;53.224;6.554;2023-05-22T03:06:57;101476.31;;;21.96;100.00
72896;BME280;61036;53.224;6.554;2023-05-22T03:09:23;101478.22;;;21.96;100.00
72896;BME280;61036;53.224;6.554;2023-05-22T03:11:49;101478.94;;;21.65;100.00
72896;BME280;61036;53.224;6.554;2023-05-22T03:14:15;101465.34;;;22.21;100.00
72896;BME280;61036;53.224;6.554;2023-05-22T03:16:40;101458.63;;;22.15;100.00
72896;BME280;61036;53.224;6.554;2023-05-22T03:21:33;101469.81;;;21.81;100.00
72896;BME280;61036;53.224;6.554;2023-05-22T03:23:59;101454.84;;;22.16;100.00
72896;BME280;61036;53.224;6.554;2023-05-22T03:26:24;101456.53;;;22.33;100.00
72896;BME280;61036;53.224;6.554;2023-05-22T03:28:54;101458.59;;;22.23;100.00
72896;BME280;61036;53.224;6.554;2023-05-22T03:31:22;101458.28;;;22.10;100.00
72896;BME280;61036;53.224;6.554;2023-05-22T03:34:01;101469.50;;;21.67;100.00
72896;BME280;61036;53.224;6.554;2023-05-22T03:36:28;101468.97;;;21.80;100.00
72896;BME280;61036;53.224;6.554;2023-05-22T03:38:54;101467.91;;;22.06;100.00
72896;BME280;61036;53.224;6.554;2023-05-22T03:41:20;101460.19;;;22.01;100.00
72896;BME280;61036;53.224;6.554;2023-05-22T03:43:47;101451.44;;;22.06;100.00
72896;BME280;61036;53.224;6.554;2023-05-22T03:46:12;101446.44;;;22.09;100.00
72896;BME280;61036;53.224;6.554;2023-05-22T03:48:38;101444.06;;;21.90;100.00
72896;BME280;61036;53.224;6.554;2023-05-22T03:51:04;101447.31;;;22.02;100.00
72896;BME280;61036;53.224;6.554;2023-05-22T03:53:31;101445.97;;;21.32;100.00
72896;BME280;61036;53.224;6.554;2023-05-22T03:55:57;101457.84;;;21.74;100.00
72896;BME280;61036;53.224;6.554;2023-05-22T03:58:23;101452.34;;;21.82;100.00
72896;BME280;61036;53.224;6.554;2023-05-22T04:00:53;101445.75;;;22.07;100.00
72896;BME280;61036;53.224;6.554;2023-05-22T04:03:19;101461.13;;;21.36;100.00
72896;BME280;61036;53.224;6.554;2023-05-22T04:05:45;101467.78;;;21.75;100.00
72896;BME280;61036;53.224;6.554;2023-05-22T04:08:11;101478.03;;;21.15;100.00
72896;BME280;61036;53.224;6.554;2023-05-22T04:10:37;101470.34;;;21.27;100.00
72896;BME280;61036;53.224;6.554;2023-05-22T04:13:03;101474.31;;;21.74;100.00
72896;BME280;61036;53.224;6.554;2023-05-22T04:15:29;101483.75;;;21.87;100.00
72896;BME280;61036;53.224;6.554;2023-05-22T04:17:59;101479.03;;;22.29;100.00
72896;BME280;61036;53.224;6.554;2023-05-22T04:20:26;101471.50;;;22.14;100.00
72896;BME280;61036;53.224;6.554;2023-05-22T04:22:52;101473.25;;;21.99;100.00
72896;BME280;61036;53.224;6.554;2023-05-22T04:25:22;101476.31;;;22.21;100.00
72896;BME280;61036;53.224;6.554;2023-05-22T04:27:47;101488.03;;;21.49;100.00
72896;BME280;61036;53.224;6.554;2023-05-22T04:30:13;101479.47;;;21.60;100.00
72896;BME280;61036;53.224;6.554;2023-05-22T04:32:41;101483.06;;;21.61;100.00
72896;BME280;61036;53.224;6.554;2023-05-22T04:35:08;101478.41;;;22.02;100.00
72896;BME280;61036;53.224;6.554;2023-05-22T04:37:34;101486.84;;;21.68;100.00
72896;BME280;61036;53.224;6.554;2023-05-22T04:40:00;101489.69;;;21.26;100.00
72896;BME280;61036;53.224;6.554;2023-05-22T04:42:34;101483.88;;;22.27;100.00
72896;BME280;61036;53.224;6.554;2023-05-22T04:45:02;101491.28;;;21.77;100.00
72896;BME280;61036;53.224;6.554;2023-05-22T04:47:28;101497.81;;;21.60;100.00
72896;BME280;61036;53.224;6.554;2023-05-22T04:49:57;101495.94;;;21.85;100.00
72896;BME280;61036;53.224;6.554;2023-05-22T04:52:23;101499.53;;;21.77;100.00
72896;BME280;61036;53.224;6.554;2023-05-22T04:54:49;101506.22;;;21.91;100.00
72896;BME280;61036;53.224;6.554;2023-05-22T04:57:20;101504.63;;;22.13;100.00
72896;BME280;61036;53.224;6.554;2023-05-22T04:59:46;101493.31;;;22.24;100.00
72896;BME280;61036;53.224;6.554;2023-05-22T05:02:13;101489.44;;;22.50;100.00
72896;BME280;61036;53.224;6.554;2023-05-22T05:04:39;101491.06;;;22.20;100.00
72896;BME280;61036;53.224;6.554;2023-05-22T05:07:04;101483.53;;;22.05;100.00
72896;BME280;61036;53.224;6.554;2023-05-22T05:09:31;101475.78;;;22.33;100.00
72896;BME280;61036;53.224;6.554;2023-05-22T05:11:56;101484.22;;;22.24;100.00
72896;BME280;61036;53.224;6.554;2023-05-22T05:14:23;101488.03;;;21.82;100.00
72896;BME280;61036;53.224;6.554;2023-05-22T05:16:49;101508.38;;;21.22;100.00
72896;BME280;61036;53.224;6.554;2023-05-22T05:19:21;101508.28;;;21.48;100.00
72896;BME280;61036;53.224;6.554;2023-05-22T05:21:47;101498.81;;;22.00;100.00
72896;BME280;61036;53.224;6.554;2023-05-22T05:24:15;101503.31;;;21.76;100.00
72896;BME280;61036;53.224;6.554;2023-05-22T05:26:41;101509.16;;;21.73;100.00
72896;BME280;61036;53.224;6.554;2023-05-22T05:29:07;101509.13;;;22.06;100.00
72896;BME280;61036;53.224;6.554;2023-05-22T05:31:53;101504.50;;;21.74;100.00
72896;BME280;61036;53.224;6.554;2023-05-22T05:34:29;101512.91;;;21.39;100.00
72896;BME280;61036;53.224;6.554;2023-05-22T05:36:59;101511.16;;;21.30;100.00
72896;BME280;61036;53.224;6.554;2023-05-22T05:39:24;101517.53;;;21.55;100.00
72896;BME280;61036;53.224;6.554;2023-05-22T05:41:50;101512.88;;;22.05;100.00
72896;BME280;61036;53.224;6.554;2023-05-22T05:44:16;101523.50;;;22.08;100.00
72896;BME280;61036;53.224;6.554;2023-05-22T05:46:42;101516.84;;;22.02;100.00
72896;BME280;61036;53.224;6.554;2023-05-22T05:49:08;101514.81;;;21.88;100.00
72896;BME280;61036;53.224;6.554;2023-05-22T05:51:38;101516.69;;;21.87;100.00
72896;BME280;61036;53.224;6.554;2023-05-22T05:54:04;101519.59;;;22.27;100.00
72896;BME280;61036;53.224;6.554;2023-05-22T05:56:30;101518.69;;;22.34;100.00
72896;BME280;61036;53.224;6.554;2023-05-22T05:58:55;101518.94;;;22.64;100.00
72896;BME280;61036;53.224;6.554;2023-05-22T06:01:33;101517.59;;;23.08;100.00
72896;BME280;61036;53.224;6.554;2023-05-22T06:04:00;101522.34;;;22.19;100.00
72896;BME280;61036;53.224;6.554;2023-05-22T06:06:31;101523.53;;;22.32;100.00
72896;BME280;61036;53.224;6.554;2023-05-22T06:09:09;101532.97;;;22.30;100.00
72896;BME280;61036;53.224;6.554;2023-05-22T06:11:55;101538.31;;;22.79;100.00
72896;BME280;61036;53.224;6.554;2023-05-22T06:14:22;101532.19;;;22.60;100.00
72896;BME280;61036;53.224;6.554;2023-05-22T06:16:47;101534.97;;;22.44;100.00
72896;BME280;61036;53.224;6.554;2023-05-22T06:19:13;101528.63;;;22.44;100.00
72896;BME280;61036;53.224;6.554;2023-05-22T06:21:39;101533.97;;;21.39;100.00
72896;BME280;61036;53.224;6.554;2023-05-22T06:24:05;101529.38;;;21.80;100.00
72896;BME280;61036;53.224;6.554;2023-05-22T06:26:32;101536.41;;;21.50;100.00
72896;BME280;61036;53.224;6.554;2023-05-22T06:28:57;101540.69;;;21.77;100.00
72896;BME280;61036;53.224;6.554;2023-05-22T06:31:23;101545.41;;;21.26;100.00
72896;BME280;61036;53.224;6.554;2023-05-22T06:33:50;101554.94;;;21.64;100.00
72896;BME280;61036;53.224;6.554;2023-05-22T06:36:16;101553.75;;;21.67;100.00
72896;BME280;61036;53.224;6.554;2023-05-22T06:38:43;101554.44;;;21.61;100.00
72896;BME280;61036;53.224;6.554;2023-05-22T06:41:27;101547.13;;;21.19;100.00
72896;BME280;61036;53.224;6.554;2023-05-22T06:43:52;101546.69;;;21.40;100.00
72896;BME280;61036;53.224;6.554;2023-05-22T06:46:24;101541.91;;;21.66;100.00
72896;BME280;61036;53.224;6.554;2023-05-22T06:48:51;101548.28;;;21.08;100.00
72896;BME280;61036;53.224;6.554;2023-05-22T06:51:25;101550.56;;;21.21;100.00
72896;BME280;61036;53.224;6.554;2023-05-22T06:53:55;101549.13;;;21.76;100.00
72896;BME280;61036;53.224;6.554;2023-05-22T06:56:25;101542.13;;;21.06;100.00
72896;BME280;61036;53.224;6.554;2023-05-22T06:59:11;101545.44;;;20.49;100.00
72896;BME280;61036;53.224;6.554;2023-05-22T07:02:15;101554.22;;;20.53;100.00
72896;BME280;61036;53.224;6.554;2023-05-22T07:05:10;101548.94;;;21.02;100.00
72896;BME280;61036;53.224;6.554;2023-05-22T07:07:50;101566.91;;;21.39;100.00
72896;BME280;61036;53.224;6.554;2023-05-22T07:10:16;101561.53;;;21.29;100.00
72896;BME280;61036;53.224;6.554;2023-05-22T07:12:41;101563.06;;;21.15;100.00
72896;BME280;61036;53.224;6.554;2023-05-22T07:15:07;101562.34;;;21.13;100.00
72896;BME280;61036;53.224;6.554;2023-05-22T07:17:36;101563.53;;;21.11;100.00
72896;BME280;61036;53.224;6.554;2023-05-22T07:20:02;101557.34;;;21.09;100.00
72896;BME280;61036;53.224;6.554;2023-05-22T07:22:29;101563.59;;;21.27;100.00
72896;BME280;61036;53.224;6.554;2023-05-22T07:24:55;101564.22;;;21.05;100.00
72896;BME280;61036;53.224;6.554;2023-05-22T07:27:26;101561.34;;;21.22;100.00
72896;BME280;61036;53.224;6.554;2023-05-22T07:29:52;101574.00;;;21.07;100.00
72896;BME280;61036;53.224;6.554;2023-05-22T07:32:18;101571.63;;;20.78;100.00
72896;BME280;61036;53.224;6.554;2023-05-22T07:34:44;101575.72;;;20.48;100.00
72896;BME280;61036;53.224;6.554;2023-05-22T07:37:11;101572.88;;;20.58;100.00
72896;BME280;61036;53.224;6.554;2023-05-22T07:39:39;101575.72;;;20.48;100.00
72896;BME280;61036;53.224;6.554;2023-05-22T07:42:05;101569.25;;;21.26;100.00
72896;BME280;61036;53.224;6.554;2023-05-22T07:44:35;101569.28;;;20.83;100.00
72896;BME280;61036;53.224;6.554;2023-05-22T07:47:00;101575.53;;;21.60;100.00
72896;BME280;61036;53.224;6.554;2023-05-22T07:49:28;101579.13;;;21.69;100.00
72896;BME280;61036;53.224;6.554;2023-05-22T07:51:53;101564.38;;;21.86;100.00
72896;BME280;61036;53.224;6.554;2023-05-22T07:54:22;101557.38;;;21.17;100.00
72896;BME280;61036;53.224;6.554;2023-05-22T07:56:51;101558.84;;;21.37;100.00
72896;BME280;61036;53.224;6.554;2023-05-22T07:59:17;101562.47;;;20.35;100.00
72896;BME280;61036;53.224;6.554;2023-05-22T08:01:45;101561.44;;;20.96;100.00
72896;BME280;61036;53.224;6.554;2023-05-22T08:04:11;101564.19;;;20.62;100.00
72896;BME280;61036;53.224;6.554;2023-05-22T08:06:36;101566.31;;;20.50;100.00
72896;BME280;61036;53.224;6.554;2023-05-22T08:09:03;101575.44;;;20.33;100.00
72896;BME280;61036;53.224;6.554;2023-05-22T08:11:29;101574.91;;;20.29;100.00
72896;BME280;61036;53.224;6.554;2023-05-22T08:13:55;101583.44;;;20.78;100.00
72896;BME280;61036;53.224;6.554;2023-05-22T08:16:21;101576.13;;;20.79;100.00
72896;BME280;61036;53.224;6.554;2023-05-22T08:18:48;101580.50;;;20.72;100.00
72896;BME280;61036;53.224;6.554;2023-05-22T08:21:13;101584.66;;;21.18;100.00
72896;BME280;61036;53.224;6.554;2023-05-22T08:23:39;101575.72;;;21.16;100.00
72896;BME280;61036;53.224;6.554;2023-05-22T08:26:05;101579.75;;;20.96;100.00
72896;BME280;61036;53.224;6.554;2023-05-22T08:28:32;101582.56;;;21.04;100.00
72896;BME280;61036;53.224;6.554;2023-05-22T08:30:58;101575.84;;;21.41;100.00
72896;BME280;61036;53.224;6.554;2023-05-22T08:33:23;101572.41;;;20.62;100.00
72896;BME280;61036;53.224;6.554;2023-05-22T08:35:49;101580.19;;;21.17;100.00
72896;BME280;61036;53.224;6.554;2023-05-22T08:38:15;101581.38;;;20.46;100.00
72896;BME280;61036;53.224;6.554;2023-05-22T08:40:46;101586.19;;;21.63;100.00
72896;BME280;61036;53.224;6.554;2023-05-22T08:43:11;101583.53;;;21.37;100.00
72896;BME280;61036;53.224;6.554;2023-05-22T08:45:37;101581.22;;;21.16;100.00
72896;BME280;61036;53.224;6.554;2023-05-22T08:48:11;101580.03;;;21.19;100.00
72896;BME280;61036;53.224;6.554;2023-05-22T08:50:40;101577.50;;;21.34;100.00
72896;BME280;61036;53.224;6.554;2023-05-22T08:53:07;101571.44;;;21.73;100.00
72896;BME280;61036;53.224;6.554;2023-05-22T08:55:33;101571.44;;;21.97;100.00
72896;BME280;61036;53.224;6.554;2023-05-22T08:57:59;101575.88;;;21.57;100.00
72896;BME280;61036;53.224;6.554;2023-05-22T09:00:25;101576.06;;;21.80;100.00
72896;BME280;61036;53.224;6.554;2023-05-22T09:02:51;101568.13;;;21.53;100.00
72896;BME280;61036;53.224;6.554;2023-05-22T09:05:17;101563.34;;;22.04;100.00
72896;BME280;61036;53.224;6.554;2023-05-22T09:07:42;101562.97;;;21.41;100.00
72896;BME280;61036;53.224;6.554;2023-05-22T09:10:09;101562.69;;;21.10;100.00
72896;BME280;61036;53.224;6.554;2023-05-22T09:12:34;101565.25;;;21.12;100.00
72896;BME280;61036;53.224;6.554;2023-05-22T09:15:10;101558.38;;;21.66;100.00
72896;BME280;61036;53.224;6.554;2023-05-22T09:17:39;101555.59;;;20.91;100.00
72896;BME280;61036;53.224;6.554;2023-05-22T09:20:05;101548.19;;;21.34;100.00
72896;BME280;61036;53.224;6.554;2023-05-22T09:22:35;101551.50;;;21.46;100.00
72896;BME280;61036;53.224;6.554;2023-05-22T09:25:04;101546.59;;;21.23;100.00
72896;BME280;61036;53.224;6.554;2023-05-22T09:27:32;101541.31;;;20.80;100.00
72896;BME280;61036;53.224;6.554;2023-05-22T09:29:57;101535.44;;;22.64;100.00
72896;BME280;61036;53.224;6.554;2023-05-22T09:32:23;101528.34;;;22.78;100.00
72896;BME280;61036;53.224;6.554;2023-05-22T09:34:49;101519.94;;;21.91;100.00
72896;BME280;61036;53.224;6.554;2023-05-22T09:37:16;101510.97;;;22.13;100.00
72896;BME280;61036;53.224;6.554;2023-05-22T09:39:46;101507.22;;;23.10;100.00
72896;BME280;61036;53.224;6.554;2023-05-22T09:42:14;101501.81;;;23.70;100.00
72896;BME280;61036;53.224;6.554;2023-05-22T09:44:42;101503.88;;;22.91;100.00
72896;BME280;61036;53.224;6.554;2023-05-22T09:47:12;101497.25;;;23.86;100.00
72896;BME280;61036;53.224;6.554;2023-05-22T09:49:41;101492.09;;;24.65;100.00
72896;BME280;61036;53.224;6.554;2023-05-22T09:52:08;101486.28;;;25.11;100.00
72896;BME280;61036;53.224;6.554;2023-05-22T09:54:52;101486.28;;;25.11;100.00
72896;BME280;61036;53.224;6.554;2023-05-22T09:57:23;101488.34;;;24.73;100.00
72896;BME280;61036;53.224;6.554;2023-05-22T09:59:53;101479.81;;;26.11;100.00
72896;BME280;61036;53.224;6.554;2023-05-22T10:02:23;101468.00;;;29.43;100.00
72896;BME280;61036;53.224;6.554;2023-05-22T10:04:49;101478.28;;;27.33;100.00
72896;BME280;61036;53.224;6.554;2023-05-22T10:07:18;101479.28;;;25.73;100.00
72896;BME280;61036;53.224;6.554;2023-05-22T10:09:50;101478.63;;;26.55;100.00
72896;BME280;61036;53.224;6.554;2023-05-22T10:12:20;101489.88;;;26.19;100.00
72896;BME280;61036;53.224;6.554;2023-05-22T10:14:47;101489.97;;;24.08;100.00
72896;BME280;61036;53.224;6.554;2023-05-22T10:17:14;101485.25;;;25.76;100.00
72896;BME280;61036;53.224;6.554;2023-05-22T10:19:41;101492.66;;;24.46;100.00
72896;BME280;61036;53.224;6.554;2023-05-22T10:22:07;101494.38;;;25.49;100.00
72896;BME280;61036;53.224;6.554;2023-05-22T10:24:33;101498.44;;;25.53;100.00
72896;BME280;61036;53.224;6.554;2023-05-22T10:26:58;101484.25;;;24.39;100.00
72896;BME280;61036;53.224;6.554;2023-05-22T10:29:39;101495.00;;;24.78;100.00
72896;BME280;61036;53.224;6.554;2023-05-22T10:32:29;101494.53;;;25.26;100.00
72896;BME280;61036;53.224;6.554;2023-05-22T10:35:28;101481.53;;;25.41;100.00
72896;BME280;61036;53.224;6.554;2023-05-22T10:40:32;101474.13;;;24.54;100.00
72896;BME280;61036;53.224;6.554;2023-05-22T10:43:00;101471.00;;;24.94;100.00
72896;BME280;61036;53.224;6.554;2023-05-22T10:45:27;101463.84;;;24.99;100.00
72896;BME280;61036;53.224;6.554;2023-05-22T10:50:32;101459.44;;;23.94;100.00
72896;BME280;61036;53.224;6.554;2023-05-22T10:53:17;101455.16;;;25.17;100.00
72896;BME280;61036;53.224;6.554;2023-05-22T10:55:56;101469.13;;;25.30;100.00
72896;BME280;61036;53.224;6.554;2023-05-22T10:58:25;101465.81;;;24.69;100.00
72896;BME280;61036;53.224;6.554;2023-05-22T11:01:16;101456.72;;;25.48;100.00
72896;BME280;61036;53.224;6.554;2023-05-22T11:03:57;101458.06;;;26.02;100.00
72896;BME280;61036;53.224;6.554;2023-05-22T11:11:45;101441.38;;;24.22;100.00
72896;BME280;61036;53.224;6.554;2023-05-22T11:14:11;101447.81;;;25.46;100.00
72896;BME280;61036;53.224;6.554;2023-05-22T11:16:38;101436.53;;;25.04;100.00
72896;BME280;61036;53.224;6.554;2023-05-22T11:19:07;101432.63;;;26.13;100.00
72896;BME280;61036;53.224;6.554;2023-05-22T11:21:42;101435.25;;;27.64;100.00
72896;BME280;61036;53.224;6.554;2023-05-22T11:24:09;101425.59;;;27.06;100.00
72896;BME280;61036;53.224;6.554;2023-05-22T11:26:35;101427.59;;;27.26;100.00
72896;BME280;61036;53.224;6.554;2023-05-22T11:29:00;101418.84;;;26.19;100.00
72896;BME280;61036;53.224;6.554;2023-05-22T11:31:26;101424.44;;;25.70;100.00
72896;BME280;61036;53.224;6.554;2023-05-22T11:33:53;101426.44;;;25.54;100.00
72896;BME280;61036;53.224;6.554;2023-05-22T11:36:19;101427.00;;;26.76;100.00
72896;BME280;61036;53.224;6.554;2023-05-22T11:38:45;101428.91;;;25.21;100.00
72896;BME280;61036;53.224;6.554;2023-05-22T11:41:10;101429.38;;;25.81;100.00
72896;BME280;61036;53.224;6.554;2023-05-22T11:43:37;101418.66;;;26.21;100.00
72896;BME280;61036;53.224;6.554;2023-05-22T11:46:06;101415.69;;;26.71;100.00
72896;BME280;61036;53.224;6.554;2023-05-22T11:48:33;101429.50;;;25.88;100.00
72896;BME280;61036;53.224;6.554;2023-05-22T11:51:03;101435.75;;;25.10;100.00
72896;BME280;61036;53.224;6.554;2023-05-22T11:53:33;101419.03;;;26.59;100.00
72896;BME280;61036;53.224;6.554;2023-05-22T11:56:03;101426.69;;;26.51;100.00
72896;BME280;61036;53.224;6.554;2023-05-22T11:58:30;101431.81;;;27.15;100.00
72896;BME280;61036;53.224;6.554;2023-05-22T12:01:00;101427.31;;;26.53;100.00
72896;BME280;61036;53.224;6.554;2023-05-22T12:03:25;101444.88;;;27.88;100.00
72896;BME280;61036;53.224;6.554;2023-05-22T12:05:51;101455.91;;;27.34;100.00
72896;BME280;61036;53.224;6.554;2023-05-22T12:08:16;101454.63;;;27.30;100.00
72896;BME280;61036;53.224;6.554;2023-05-22T12:10:49;101449.00;;;27.04;100.00
72896;BME280;61036;53.224;6.554;2023-05-22T12:13:21;101441.22;;;27.94;100.00
72896;BME280;61036;53.224;6.554;2023-05-22T12:15:47;101449.34;;;27.69;98.35
72896;BME280;61036;53.224;6.554;2023-05-22T12:18:12;101454.66;;;27.57;100.00
72896;BME280;61036;53.224;6.554;2023-05-22T12:20:41;101449.09;;;27.70;100.00
72896;BME280;61036;53.224;6.554;2023-05-22T12:23:27;101455.75;;;27.96;99.00
72896;BME280;61036;53.224;6.554;2023-05-22T12:26:00;101452.91;;;28.29;97.62
72896;BME280;61036;53.224;6.554;2023-05-22T12:28:26;101452.50;;;27.52;99.49
72896;BME280;61036;53.224;6.554;2023-05-22T12:30:56;101450.63;;;27.86;100.00
72896;BME280;61036;53.224;6.554;2023-05-22T12:33:28;101450.84;;;27.78;100.00
72896;BME280;61036;53.224;6.554;2023-05-22T12:35:57;101457.41;;;27.64;100.00
72896;BME280;61036;53.224;6.554;2023-05-22T12:38:30;101451.16;;;28.93;100.00
72896;BME280;61036;53.224;6.554;2023-05-22T12:40:56;101457.75;;;28.54;100.00
72896;BME280;61036;53.224;6.554;2023-05-22T12:43:23;101462.09;;;27.43;100.00
72896;BME280;61036;53.224;6.554;2023-05-22T13:57:41;101492.63;;;24.75;100.00
72896;BME280;61036;53.224;6.554;2023-05-22T14:00:07;101500.72;;;24.32;100.00
72896;BME280;61036;53.224;6.554;2023-05-22T14:02:33;101494.47;;;25.19;100.00
72896;BME280;61036;53.224;6.554;2023-05-22T14:04:59;101488.19;;;24.45;100.00
72896;BME280;61036;53.224;6.554;2023-05-22T14:07:25;101505.09;;;24.41;100.00
72896;BME280;61036;53.224;6.554;2023-05-22T14:09:50;101498.94;;;24.54;100.00
72896;BME280;61036;53.224;6.554;2023-05-22T14:12:16;101505.25;;;24.10;100.00
72896;BME280;61036;53.224;6.554;2023-05-22T14:14:41;101499.00;;;24.31;100.00
72896;BME280;61036;53.224;6.554;2023-05-22T14:17:07;101508.78;;;24.04;100.00
72896;BME280;61036;53.224;6.554;2023-05-22T14:19:33;101509.84;;;24.33;100.00